Time;durP1;ratioP1;P1;durP2;ratioP2;P2;SDS_P1;SDS_P2;PMS_P1;PMS_P2;Temp;Humidity;BMP_temperature;BMP_pressure;BME280_temperature;BME280_humidity;BME280_pressure;Samples;Min_cycle;Max_cycle;Signal;HPM_P1;HPM_P2
2021/08/11 00:00:12;;;;;;;20.43;13.03;;;24.40;84.00;;;;;;1886923;75;21499;-52
2021/08/11 00:02:41;;;;;;;18.92;12.93;;;24.50;84.20;;;;;;1886916;76;21099;-52
2021/08/11 00:05:11;;;;;;;27.30;12.20;;;24.40;84.00;;;;;;1886819;76;21017;-53
2021/08/11 00:07:40;;;;;;;20.97;12.03;;;24.40;84.00;;;;;;1886855;76;21045;-52
2021/08/11 00:10:10;;;;;;;23.12;11.65;;;24.40;83.90;;;;;;1886937;76;21088;-52
2021/08/11 00:12:39;;;;;;;15.95;10.68;;;24.40;84.10;;;;;;1887002;76;21081;-53
2021/08/11 00:15:09;;;;;;;16.93;9.78;;;24.40;84.10;;;;;;1886946;76;21336;-51
2021/08/11 00:17:39;;;;;;;16.30;12.07;;;24.40;84.30;;;;;;1886993;76;21119;-52
2021/08/11 00:20:10;;;;;;;17.85;12.35;;;24.30;84.30;;;;;;1887178;76;21045;-52
2021/08/11 00:22:39;;;;;;;20.82;12.20;;;24.30;84.40;;;;;;1887079;76;21150;-53
2021/08/11 00:25:09;;;;;;;16.70;12.35;;;24.20;84.60;;;;;;1886921;76;21104;-53
2021/08/11 00:27:38;;;;;;;20.08;11.85;;;24.20;84.70;;;;;;1886954;76;21107;-50
2021/08/11 00:30:09;;;;;;;18.07;12.60;;;24.20;84.80;;;;;;1886929;76;21045;-53
2021/08/11 00:32:40;;;;;;;18.95;11.10;;;24.30;85.00;;;;;;1886543;76;21214;-50
2021/08/11 00:35:09;;;;;;;20.27;12.40;;;24.30;85.10;;;;;;1886998;76;21080;-52
2021/08/11 00:37:39;;;;;;;18.23;10.75;;;24.30;85.00;;;;;;1886847;76;21172;-50
2021/08/11 00:40:11;;;;;;;20.60;10.85;;;24.30;85.10;;;;;;1886842;76;21013;-52
2021/08/11 00:42:41;;;;;;;13.05;8.90;;;24.30;85.30;;;;;;1886892;76;21061;-53
2021/08/11 00:45:13;;;;;;;13.38;9.93;;;24.30;85.30;;;;;;1886919;76;21106;-52
2021/08/11 00:47:43;;;;;;;17.27;10.55;;;24.30;85.40;;;;;;1859868;76;21053;-51
2021/08/11 00:50:12;;;;;;;16.80;9.98;;;24.30;85.40;;;;;;1887043;76;21033;-53
2021/08/11 00:52:42;;;;;;;15.03;11.65;;;24.30;85.50;;;;;;1886888;76;21029;-53
2021/08/11 00:55:13;;;;;;;14.53;11.63;;;24.30;85.50;;;;;;1886830;76;21109;-52
2021/08/11 00:57:44;;;;;;;14.70;10.55;;;24.20;85.30;;;;;;1886276;76;21061;-53
2021/08/11 01:00:15;;;;;;;15.88;10.40;;;24.20;85.40;;;;;;1887023;76;21041;-52
2021/08/11 01:02:45;;;;;;;14.78;10.72;;;24.20;85.60;;;;;;1887115;76;21107;-52
2021/08/11 01:05:18;;;;;;;21.20;14.98;;;24.20;85.70;;;;;;1859711;76;21061;-52
2021/08/11 01:07:50;;;;;;;18.90;13.65;;;24.20;85.80;;;;;;1887041;76;21061;-52
2021/08/11 01:10:20;;;;;;;20.85;14.03;;;24.20;85.80;;;;;;1889792;75;21554;-50
2021/08/11 01:12:51;;;;;;;14.55;11.55;;;24.20;85.80;;;;;;1893474;76;21094;-51
2021/08/11 01:15:20;;;;;;;22.93;12.85;;;24.20;85.90;;;;;;1893462;76;21146;-51
2021/08/11 01:17:50;;;;;;;17.07;12.43;;;24.20;85.80;;;;;;1893491;76;21146;-53
2021/08/11 01:20:20;;;;;;;14.80;12.47;;;24.20;85.80;;;;;;1893413;76;21083;-52
2021/08/11 01:22:52;;;;;;;15.88;12.43;;;24.30;85.80;;;;;;1893402;76;21087;-50
2021/08/11 01:25:36;;;;;;;18.23;11.85;;;24.30;85.80;;;;;;1892645;75;21061;-51
2021/08/11 01:28:28;;;;;;;20.30;13.50;;;24.30;85.80;;;;;;1893614;76;21024;-51
2021/08/11 01:31:12;;;;;;;18.35;15.85;;;24.30;85.80;;;;;;1893368;76;21048;-51
2021/08/11 01:34:06;;;;;;;20.48;14.73;;;24.30;85.90;;;;;;1893600;76;21474;-51
2021/08/11 01:36:48;;;;;;;14.10;11.55;;;24.30;86.00;;;;;;1893708;76;21602;-49
2021/08/11 01:39:36;;;;;;;11.85;9.45;;;24.20;85.90;;;;;;1893020;75;21041;-51
2021/08/11 01:42:12;;;;;;;15.93;9.98;;;24.30;86.00;;;;;;1892842;76;21056;-51
2021/08/11 01:44:48;;;;;;;17.73;10.80;;;24.20;86.10;;;;;;1893451;76;21061;-52
2021/08/11 01:47:20;;;;;;;12.90;9.90;;;24.20;86.20;;;;;;1893411;76;21110;-51
2021/08/11 01:49:51;;;;;;;13.93;10.05;;;24.20;86.30;;;;;;1893429;76;21550;-52
2021/08/11 01:52:21;;;;;;;22.40;12.55;;;24.10;86.40;;;;;;1893339;76;21040;-51
2021/08/11 01:54:51;;;;;;;14.18;10.13;;;24.10;86.50;;;;;;1893472;76;21045;-51
2021/08/11 01:57:20;;;;;;;15.65;10.80;;;24.10;86.50;;;;;;1893379;76;21154;-51
2021/08/11 01:59:51;;;;;;;16.67;9.50;;;24.10;86.60;;;;;;1893415;76;21142;-50
2021/08/11 02:02:22;;;;;;;15.68;10.32;;;24.00;86.60;;;;;;1893395;76;21449;-50
2021/08/11 02:04:51;;;;;;;16.60;10.58;;;24.00;86.80;;;;;;1893427;76;21169;-49
2021/08/11 02:07:21;;;;;;;16.60;9.85;;;24.00;87.00;;;;;;1893417;76;21173;-52
2021/08/11 02:09:52;;;;;;;15.32;10.43;;;23.90;87.00;;;;;;1892409;75;21043;-49
2021/08/11 02:12:22;;;;;;;14.00;10.00;;;23.90;87.10;;;;;;1893414;76;21029;-51
2021/08/11 02:14:52;;;;;;;12.70;9.03;;;23.90;87.10;;;;;;1893609;76;21044;-49
2021/08/11 02:17:21;;;;;;;19.07;9.78;;;23.90;87.10;;;;;;1893513;76;21045;-49
2021/08/11 02:19:52;;;;;;;15.72;10.10;;;24.00;87.10;;;;;;1893543;76;21110;-51
2021/08/11 02:22:21;;;;;;;11.63;9.18;;;24.00;86.90;;;;;;1893585;76;21037;-50
2021/08/11 02:24:52;;;;;;;13.68;10.25;;;24.00;86.90;;;;;;1893599;76;21044;-53
2021/08/11 02:27:24;;;;;;;14.23;10.32;;;24.00;86.90;;;;;;1893495;76;21029;-52
2021/08/11 02:30:08;;;;;;;14.75;9.53;;;24.10;86.90;;;;;;1893583;76;21464;-51
2021/08/11 02:32:41;;;;;;;13.72;9.93;;;24.10;86.80;;;;;;1893481;76;21096;-52
2021/08/11 02:35:20;;;;;;;15.98;11.00;;;24.10;86.70;;;;;;1893549;76;21063;-51
2021/08/11 02:38:11;;;;;;;13.70;9.70;;;24.20;86.60;;;;;;1893553;76;21072;-52
2021/08/11 02:40:53;;;;;;;14.00;10.82;;;24.20;86.50;;;;;;1893520;76;21056;-53
2021/08/11 02:43:36;;;;;;;17.30;9.63;;;24.20;86.40;;;;;;1893472;76;21118;-51
2021/08/11 02:46:10;;;;;;;12.35;9.60;;;24.20;86.40;;;;;;1893611;76;21069;-50
2021/08/11 02:48:40;;;;;;;14.25;9.48;;;24.20;86.50;;;;;;1893458;76;21076;-52
2021/08/11 02:51:11;;;;;;;14.78;9.50;;;24.20;86.50;;;;;;1893439;76;21123;-51
2021/08/11 02:53:42;;;;;;;18.15;11.05;;;24.20;86.50;;;;;;1893338;76;21154;-50
2021/08/11 02:56:15;;;;;;;23.32;11.85;;;24.30;86.40;;;;;;1893401;76;21013;-51
2021/08/11 02:58:45;;;;;;;19.15;10.80;;;24.20;86.30;;;;;;1893380;76;21110;-52
2021/08/11 03:01:14;;;;;;;14.85;10.68;;;24.10;86.50;;;;;;1893414;76;20993;-51
2021/08/11 03:03:44;;;;;;;12.07;9.75;;;24.10;86.70;;;;;;1893569;75;21040;-52
2021/08/11 03:06:14;;;;;;;11.88;9.38;;;24.00;86.90;;;;;;1893457;76;21029;-51
2021/08/11 03:08:43;;;;;;;12.28;10.28;;;24.00;87.00;;;;;;1893469;75;21064;-52
2021/08/11 03:11:13;;;;;;;15.68;10.85;;;24.00;87.20;;;;;;1891393;76;21068;-51
2021/08/11 03:13:43;;;;;;;10.70;9.28;;;24.00;87.20;;;;;;1886933;76;21037;-51
2021/08/11 03:16:13;;;;;;;13.58;9.13;;;24.00;87.20;;;;;;1886982;76;21122;-52
2021/08/11 03:18:43;;;;;;;13.08;9.78;;;24.10;87.10;;;;;;1886943;76;21107;-52
2021/08/11 03:21:12;;;;;;;16.05;10.30;;;24.10;87.10;;;;;;1887011;76;21037;-52
2021/08/11 03:23:42;;;;;;;12.00;8.33;;;24.10;86.80;;;;;;1887029;75;21033;-51
2021/08/11 03:26:12;;;;;;;15.43;10.08;;;24.10;86.80;;;;;;1886994;75;21127;-53
2021/08/11 03:28:41;;;;;;;18.20;11.40;;;24.20;86.80;;;;;;1887131;75;21154;-52
2021/08/11 03:31:11;;;;;;;18.40;9.95;;;24.20;86.80;;;;;;1886960;76;21013;-52
2021/08/11 03:33:42;;;;;;;13.90;9.98;;;24.20;86.80;;;;;;1886760;76;21159;-52
2021/08/11 03:36:12;;;;;;;16.02;10.85;;;24.20;86.80;;;;;;1887052;76;21061;-52
2021/08/11 03:38:41;;;;;;;12.65;8.93;;;24.30;86.80;;;;;;1887010;76;21103;-49
2021/08/11 03:41:11;;;;;;;17.48;9.75;;;24.30;86.70;;;;;;1886991;76;21069;-51
2021/08/11 03:43:40;;;;;;;21.80;10.75;;;24.30;86.60;;;;;;1887136;76;21088;-52
2021/08/11 03:46:10;;;;;;;14.63;9.70;;;24.40;86.50;;;;;;1887024;75;21160;-52
2021/08/11 03:48:39;;;;;;;11.80;9.20;;;24.40;86.30;;;;;;1886926;76;21123;-51
2021/08/11 03:51:09;;;;;;;12.93;10.50;;;24.40;86.30;;;;;;1886892;75;21107;-52
2021/08/11 03:53:39;;;;;;;17.90;11.93;;;24.40;86.30;;;;;;1886891;76;21049;-51
2021/08/11 03:56:09;;;;;;;17.55;9.80;;;24.40;86.30;;;;;;1886875;76;21107;-52
2021/08/11 03:58:38;;;;;;;18.52;11.38;;;24.50;86.40;;;;;;1886862;76;21099;-52
2021/08/11 04:01:08;;;;;;;17.82;11.20;;;24.50;86.30;;;;;;1886905;76;21033;-52
2021/08/11 04:03:36;;;;;;;15.53;11.50;;;24.50;86.20;;;;;;1886783;76;21077;-53
2021/08/11 04:06:05;;;;;;;17.40;11.95;;;24.40;86.30;;;;;;1886852;76;21061;-53
2021/08/11 04:08:34;;;;;;;16.87;10.98;;;24.40;86.50;;;;;;1886832;76;21105;-53
2021/08/11 04:11:02;;;;;;;16.20;11.33;;;24.40;86.50;;;;;;1886816;75;21554;-53
2021/08/11 04:13:31;;;;;;;15.85;10.40;;;24.40;86.50;;;;;;1893284;76;21065;-53
2021/08/11 04:16:00;;;;;;;17.02;11.48;;;24.40;86.70;;;;;;1893261;75;21130;-53
2021/08/11 04:18:28;;;;;;;27.25;12.85;;;24.50;86.60;;;;;;1893285;75;21061;-53
2021/08/11 04:20:57;;;;;;;28.55;12.55;;;24.50;86.40;;;;;;1893325;75;21045;-53
2021/08/11 04:23:27;;;;;;;20.72;13.68;;;24.50;86.20;;;;;;1893317;74;21463;-53
2021/08/11 04:25:56;;;;;;;24.00;18.12;;;24.60;86.20;;;;;;1893274;76;21005;-53
2021/08/11 04:28:25;;;;;;;17.95;11.97;;;24.60;86.10;;;;;;1893274;75;21624;-53
2021/08/11 04:30:54;;;;;;;22.58;13.28;;;24.70;86.00;;;;;;1893288;75;21107;-52
2021/08/11 04:33:22;;;;;;;20.40;12.58;;;24.70;85.90;;;;;;1893234;75;21488;-52
2021/08/11 04:35:51;;;;;;;15.43;12.33;;;24.70;85.90;;;;;;1893203;75;21038;-53
2021/08/11 04:38:19;;;;;;;17.30;11.97;;;24.70;85.90;;;;;;1893291;75;21033;-52
2021/08/11 04:40:48;;;;;;;19.42;12.20;;;24.80;85.90;;;;;;1893371;75;21014;-53
2021/08/11 04:43:16;;;;;;;19.52;12.50;;;24.80;85.80;;;;;;1893281;75;21480;-53
2021/08/11 04:45:45;;;;;;;16.50;12.68;;;24.80;85.80;;;;;;1893316;75;21059;-53
2021/08/11 04:48:14;;;;;;;21.20;14.55;;;24.80;85.80;;;;;;1893290;75;21032;-52
2021/08/11 04:50:42;;;;;;;22.48;15.50;;;24.80;86.10;;;;;;1893278;75;21095;-53
2021/08/11 04:53:11;;;;;;;28.35;19.57;;;24.80;86.30;;;;;;1893227;76;21049;-53
2021/08/11 04:55:40;;;;;;;15.53;12.05;;;24.70;86.40;;;;;;1893249;75;21036;-53
2021/08/11 04:58:08;;;;;;;15.53;11.00;;;24.60;86.50;;;;;;1893257;76;21094;-52
2021/08/11 05:00:37;;;;;;;14.23;11.03;;;24.60;86.60;;;;;;1893267;75;21106;-53
2021/08/11 05:03:05;;;;;;;12.93;11.48;;;24.70;86.60;;;;;;1893259;75;21032;-53
2021/08/11 05:05:34;;;;;;;15.48;11.18;;;24.70;86.60;;;;;;1893175;75;21038;-52
2021/08/11 05:08:03;;;;;;;97.57;39.38;;;24.80;86.70;;;;;;1893319;75;21420;-53
2021/08/11 05:10:31;;;;;;;23.27;14.87;;;24.80;86.60;;;;;;1893101;76;21040;-51
2021/08/11 05:13:00;;;;;;;17.52;13.62;;;24.80;86.50;;;;;;1893052;75;21099;-52
2021/08/11 05:15:29;;;;;;;21.65;13.10;;;24.80;87.00;;;;;;1893133;75;21009;-54
2021/08/11 05:17:57;;;;;;;19.12;12.45;;;24.80;86.50;;;;;;1893185;75;21096;-50
2021/08/11 05:20:25;;;;;;;20.12;14.63;;;24.80;86.60;;;;;;1893214;75;21147;-52
2021/08/11 05:22:54;;;;;;;20.70;12.43;;;24.80;87.10;;;;;;1893150;75;21061;-52
2021/08/11 05:25:22;;;;;;;22.60;13.15;;;24.90;86.60;;;;;;1893148;76;21036;-52
2021/08/11 05:27:51;;;;;;;21.42;13.68;;;25.00;86.20;;;;;;1893169;75;21161;-51
2021/08/11 05:30:19;;;;;;;20.35;12.88;;;25.10;85.80;;;;;;1893270;75;21127;-50
2021/08/11 05:32:48;;;;;;;22.75;13.00;;;25.20;85.60;;;;;;1893235;75;21068;-52
2021/08/11 05:35:17;;;;;;;23.22;12.88;;;25.20;85.50;;;;;;1893109;75;21012;-52
2021/08/11 05:37:45;;;;;;;22.20;14.18;;;25.30;85.50;;;;;;1893280;75;21017;-52
2021/08/11 05:40:16;;;;;;;22.30;13.40;;;25.40;85.10;;;;;;1893237;75;21468;-52
2021/08/11 05:42:44;;;;;;;19.25;13.72;;;25.40;84.90;;;;;;1893364;76;21139;-51
2021/08/11 05:45:13;;;;;;;20.20;14.10;;;25.50;84.80;;;;;;1893262;75;21094;-50
2021/08/11 05:47:42;;;;;;;23.85;15.08;;;25.50;84.50;;;;;;1893286;75;21606;-52
2021/08/11 05:50:12;;;;;;;19.23;14.00;;;25.50;84.20;;;;;;1893476;75;21143;-51
2021/08/11 05:52:40;;;;;;;19.80;14.60;;;25.50;84.00;;;;;;1893408;75;21088;-50
2021/08/11 05:55:09;;;;;;;15.20;11.75;;;25.50;83.90;;;;;;1893402;75;21037;-52
2021/08/11 05:57:42;;;;;;;20.70;13.85;;;25.50;84.00;;;;;;1893412;75;21099;-52
2021/08/11 06:00:11;;;;;;;16.52;13.80;;;25.40;84.00;;;;;;1893368;75;21355;-52
2021/08/11 06:02:42;;;;;;;22.22;15.18;;;25.50;84.10;;;;;;1893503;76;21214;-52
2021/08/11 06:05:16;;;;;;;21.37;17.25;;;25.50;84.10;;;;;;1892363;76;21052;-51
2021/08/11 06:07:45;;;;;;;20.68;14.87;;;25.40;84.20;;;;;;1893486;75;21045;-52
2021/08/11 06:10:14;;;;;;;21.87;14.83;;;25.40;84.50;;;;;;1893345;76;21036;-52
2021/08/11 06:12:46;;;;;;;30.15;15.90;;;25.40;84.90;;;;;;1891529;75;21077;-52
2021/08/11 06:15:14;;;;;;;19.25;14.73;;;25.40;85.00;;;;;;1886865;76;21146;-52
2021/08/11 06:17:46;;;;;;;19.48;13.28;;;25.40;85.00;;;;;;1886831;76;21093;-51
2021/08/11 06:20:17;;;;;;;19.70;14.35;;;25.40;85.00;;;;;;1886340;76;21069;-52
2021/08/11 06:22:47;;;;;;;19.42;15.28;;;25.50;85.00;;;;;;1886244;76;21515;-52
2021/08/11 06:25:17;;;;;;;21.20;14.60;;;25.50;84.80;;;;;;1886982;76;21033;-52
2021/08/11 06:27:46;;;;;;;27.55;15.43;;;25.60;84.70;;;;;;1886867;76;21013;-50
2021/08/11 06:30:16;;;;;;;17.90;14.83;;;25.70;84.50;;;;;;1886880;76;21036;-52
2021/08/11 06:32:45;;;;;;;18.05;13.80;;;25.60;84.40;;;;;;1886905;76;21037;-52
2021/08/11 06:35:15;;;;;;;19.10;14.65;;;25.70;84.50;;;;;;1887006;76;21107;-52
2021/08/11 06:37:49;;;;;;;18.85;13.72;;;25.70;84.30;;;;;;1886943;76;21102;-52
2021/08/11 06:40:20;;;;;;;20.10;14.50;;;25.80;84.00;;;;;;1887347;76;21041;-52
2021/08/11 06:42:51;;;;;;;21.00;14.03;;;25.90;83.60;;;;;;1886931;76;21103;-52
2021/08/11 06:45:22;;;;;;;25.68;15.48;;;25.90;83.50;;;;;;1886186;76;21090;-52
2021/08/11 06:47:52;;;;;;;19.40;15.43;;;25.90;83.60;;;;;;1886942;76;21150;-52
2021/08/11 06:50:22;;;;;;;18.55;14.50;;;25.90;83.50;;;;;;1887032;76;21065;-52
2021/08/11 06:52:51;;;;;;;35.78;17.82;;;26.00;83.40;;;;;;1886797;76;21088;-52
2021/08/11 06:55:21;;;;;;;16.12;13.80;;;26.00;83.30;;;;;;1886906;76;21175;-53
2021/08/11 06:57:50;;;;;;;18.75;14.38;;;26.00;83.10;;;;;;1886916;76;21013;-53
2021/08/11 07:00:20;;;;;;;17.42;14.18;;;26.10;82.70;;;;;;1886880;76;21045;-52
2021/08/11 07:02:50;;;;;;;17.95;14.18;;;26.10;82.60;;;;;;1886785;76;21069;-51
2021/08/11 07:05:19;;;;;;;19.30;14.98;;;26.20;82.50;;;;;;1887058;76;21107;-52
2021/08/11 07:07:49;;;;;;;20.17;15.70;;;26.20;82.50;;;;;;1886775;76;21065;-52
2021/08/11 07:10:18;;;;;;;19.15;15.20;;;26.20;82.20;;;;;;1886845;75;21095;-52
2021/08/11 07:12:49;;;;;;;22.87;15.18;;;26.20;82.10;;;;;;1886749;75;21037;-51
2021/08/11 07:15:18;;;;;;;27.55;22.15;;;26.30;81.90;;;;;;1886877;76;21033;-51
2021/08/11 07:17:52;;;;;;;20.82;13.72;;;26.30;82.00;;;;;;1886984;75;21136;-52
2021/08/11 07:20:26;;;;;;;17.40;13.60;;;26.30;81.50;;;;;;1887075;76;21077;-50
2021/08/11 07:22:56;;;;;;;22.17;15.03;;;26.40;81.50;;;;;;1887271;76;21002;-52
2021/08/11 07:25:26;;;;;;;15.50;12.60;;;26.50;81.30;;;;;;1886783;76;21009;-51
2021/08/11 07:27:56;;;;;;;49.48;37.93;;;26.70;81.20;;;;;;1886409;76;21061;-52
2021/08/11 07:30:25;;;;;;;29.77;22.52;;;26.70;80.60;;;;;;1886890;76;21045;-52
2021/08/11 07:33:14;;;;;;;19.25;14.30;;;26.80;80.30;;;;;;1870721;75;21508;-52
2021/08/11 07:35:43;;;;;;;19.48;14.10;;;26.90;80.30;;;;;;1886870;76;21099;-51
2021/08/11 07:38:13;;;;;;;19.92;12.68;;;27.00;80.10;;;;;;1886666;76;21037;-51
2021/08/11 07:40:43;;;;;;;25.05;12.33;;;27.10;79.70;;;;;;1886700;76;21037;-52
2021/08/11 07:43:13;;;;;;;18.05;11.33;;;27.20;79.20;;;;;;1886638;75;21120;-53
2021/08/11 07:45:42;;;;;;;12.07;10.35;;;27.20;78.70;;;;;;1886724;76;21037;-53
2021/08/11 07:48:11;;;;;;;19.25;9.55;;;27.30;78.40;;;;;;1886827;76;21080;-52
2021/08/11 07:50:41;;;;;;;12.78;9.45;;;27.30;78.20;;;;;;1886804;76;21080;-51
2021/08/11 07:53:10;;;;;;;11.78;9.43;;;27.30;78.00;;;;;;1886841;76;21033;-52
2021/08/11 07:55:40;;;;;;;13.05;9.38;;;27.40;77.40;;;;;;1886743;76;21091;-52
2021/08/11 07:58:09;;;;;;;10.25;6.45;;;27.50;77.30;;;;;;1886973;76;21095;-53
2021/08/11 08:00:39;;;;;;;7.47;6.55;;;27.50;76.40;;;;;;1886925;76;21565;-50
2021/08/11 08:03:08;;;;;;;11.18;8.48;;;27.50;75.90;;;;;;1886803;75;21106;-53
2021/08/11 08:05:38;;;;;;;12.70;9.53;;;27.60;75.90;;;;;;1887055;76;21033;-53
2021/08/11 08:08:07;;;;;;;13.20;8.95;;;27.60;76.00;;;;;;1886918;76;21100;-51
2021/08/11 08:10:37;;;;;;;12.15;8.48;;;27.60;76.30;;;;;;1886825;76;21065;-52
2021/08/11 08:13:06;;;;;;;10.25;8.53;;;27.60;76.10;;;;;;1886850;76;21045;-53
2021/08/11 08:15:36;;;;;;;12.07;8.85;;;27.60;75.90;;;;;;1892827;75;21069;-52
2021/08/11 08:18:06;;;;;;;10.45;8.33;;;27.60;76.00;;;;;;1893233;76;21037;-53
2021/08/11 08:20:35;;;;;;;8.70;7.30;;;27.60;76.20;;;;;;1893357;76;21037;-52
2021/08/11 08:23:04;;;;;;;9.15;5.80;;;27.80;75.80;;;;;;1893390;76;21013;-51
2021/08/11 08:25:34;;;;;;;9.83;6.92;;;27.80;75.10;;;;;;1893247;76;21095;-52
2021/08/11 08:28:03;;;;;;;11.08;7.70;;;27.90;74.50;;;;;;1893261;76;21107;-52
2021/08/11 08:30:33;;;;;;;17.62;9.23;;;27.80;74.20;;;;;;1893167;76;21095;-52
2021/08/11 08:33:03;;;;;;;9.25;6.85;;;27.90;74.30;;;;;;1893086;76;21065;-50
2021/08/11 08:35:32;;;;;;;8.50;7.17;;;27.90;74.30;;;;;;1893360;76;21038;-51
2021/08/11 08:38:02;;;;;;;8.18;6.47;;;27.90;74.20;;;;;;1893276;76;21130;-50
2021/08/11 08:40:33;;;;;;;11.45;6.08;;;27.90;74.10;;;;;;1893246;76;21150;-50
2021/08/11 08:43:03;;;;;;;8.85;6.25;;;27.90;73.80;;;;;;1893198;76;21048;-51
2021/08/11 08:45:33;;;;;;;13.62;6.45;;;27.90;73.70;;;;;;1893236;76;21056;-48
2021/08/11 08:48:04;;;;;;;9.05;6.33;;;27.90;73.70;;;;;;1893321;76;21016;-50
2021/08/11 08:50:35;;;;;;;9.33;6.35;;;28.00;73.40;;;;;;1893227;76;21124;-50
2021/08/11 08:53:05;;;;;;;6.42;5.70;;;28.00;73.30;;;;;;1893089;76;21115;-49
2021/08/11 08:55:35;;;;;;;8.05;5.87;;;28.10;72.90;;;;;;1893296;76;21146;-51
2021/08/11 08:58:05;;;;;;;10.13;6.03;;;28.20;72.60;;;;;;1893259;76;21005;-51
2021/08/11 09:00:35;;;;;;;6.03;5.35;;;28.20;72.70;;;;;;1893262;74;21013;-50
2021/08/11 09:03:05;;;;;;;7.25;5.10;;;28.30;72.50;;;;;;1893248;74;21037;-51
2021/08/11 09:05:34;;;;;;;5.70;5.00;;;28.30;72.10;;;;;;1893278;76;21580;-50
2021/08/11 09:08:04;;;;;;;14.23;5.10;;;28.30;71.80;;;;;;1893250;76;21065;-51
2021/08/11 09:10:33;;;;;;;5.05;4.45;;;28.40;71.60;;;;;;1893235;76;21037;-50
2021/08/11 09:13:09;;;;;;;9.73;5.67;;;28.40;71.40;;;;;;1893152;76;21107;-51
2021/08/11 09:15:38;;;;;;;9.10;4.95;;;28.40;71.30;;;;;;1892144;75;21084;-50
2021/08/11 09:18:21;;;;;;;8.00;5.10;;;28.40;71.00;;;;;;1893191;76;21033;-51
2021/08/11 09:21:09;;;;;;;7.40;5.35;;;28.40;70.80;;;;;;1893294;76;21033;-50
2021/08/11 09:23:41;;;;;;;6.72;4.58;;;28.50;70.50;;;;;;1893321;76;21052;-51
2021/08/11 09:26:12;;;;;;;8.93;4.55;;;28.50;70.60;;;;;;1893436;76;21219;-50
2021/08/11 09:28:44;;;;;;;6.17;4.85;;;28.50;70.70;;;;;;1893314;76;21088;-51
2021/08/11 09:31:30;;;;;;;5.65;4.42;;;28.50;70.80;;;;;;1893462;76;21158;-51
2021/08/11 09:34:08;;;;;;;4.62;2.80;;;28.50;70.70;;;;;;1893275;76;21052;-51
2021/08/11 09:36:51;;;;;;;4.97;3.30;;;28.50;70.60;;;;;;1893428;76;21121;-52
2021/08/11 09:39:21;;;;;;;10.30;4.00;;;28.50;70.40;;;;;;1893275;76;21107;-51
2021/08/11 09:42:03;;;;;;;5.65;2.75;;;28.50;70.20;;;;;;1893434;76;21037;-51
2021/08/11 09:44:33;;;;;;;3.80;2.80;;;28.50;70.10;;;;;;1893423;76;21138;-51
2021/08/11 09:47:20;;;;;;;3.10;2.75;;;28.50;69.80;;;;;;1893427;76;21032;-52
2021/08/11 09:50:03;;;;;;;4.67;3.17;;;28.60;69.80;;;;;;1892598;75;21114;-51
2021/08/11 09:52:53;;;;;;;2.72;2.47;;;28.60;69.60;;;;;;1893302;76;21103;-51
2021/08/11 09:55:22;;;;;;;3.77;2.58;;;28.70;69.60;;;;;;1893425;76;21080;-49
2021/08/11 09:57:52;;;;;;;7.10;4.83;;;28.80;69.30;;;;;;1893377;74;21076;-51
2021/08/11 10:00:21;;;;;;;4.55;2.58;;;28.90;68.70;;;;;;1893436;76;21033;-52
2021/08/11 10:02:53;;;;;;;4.72;2.55;;;29.00;68.20;;;;;;1893340;76;21032;-50
2021/08/11 10:05:34;;;;;;;4.45;2.50;;;29.10;67.90;;;;;;1890531;75;21033;-50
2021/08/11 10:08:06;;;;;;;2.90;2.47;;;29.20;67.80;;;;;;1892514;76;21045;-49
2021/08/11 10:10:49;;;;;;;3.02;2.20;;;29.30;67.40;;;;;;1893490;76;21009;-51
2021/08/11 10:13:20;;;;;;;8.00;3.60;;;29.40;67.20;;;;;;1893753;76;21005;-52
2021/08/11 10:15:50;;;;;;;4.78;2.33;;;29.50;66.90;;;;;;1889857;76;21112;-51
2021/08/11 10:18:24;;;;;;;2.98;2.05;;;29.50;66.50;;;;;;1886754;76;21037;-52
2021/08/11 10:21:02;;;;;;;8.78;2.45;;;29.50;66.20;;;;;;1886954;76;21091;-51
2021/08/11 10:23:32;;;;;;;8.50;4.60;;;29.50;65.30;;;;;;1886925;76;21320;-51
2021/08/11 10:26:02;;;;;;;3.27;2.20;;;29.30;64.80;;;;;;1886967;76;21097;-51
2021/08/11 10:28:33;;;;;;;2.20;1.65;;;29.30;64.70;;;;;;1886804;76;21112;-51
2021/08/11 10:31:03;;;;;;;3.37;2.20;;;29.30;64.60;;;;;;1886807;76;21045;-52
2021/08/11 10:33:32;;;;;;;2.67;2.12;;;29.30;64.50;;;;;;1886952;76;21092;-50
2021/08/11 10:36:02;;;;;;;3.62;1.90;;;29.20;64.90;;;;;;1886817;75;21080;-50
2021/08/11 10:38:33;;;;;;;6.42;4.17;;;29.10;64.80;;;;;;1886880;76;21606;-51
2021/08/11 10:41:03;;;;;;;5.35;2.10;;;29.10;65.00;;;;;;1886894;76;21738;-51
2021/08/11 10:43:36;;;;;;;8.20;2.50;;;29.10;65.00;;;;;;1886843;76;21018;-52
2021/08/11 10:46:09;;;;;;;2.42;1.65;;;29.10;65.20;;;;;;1887003;76;21045;-50
2021/08/11 10:48:39;;;;;;;2.87;2.08;;;29.10;65.00;;;;;;1886904;76;21123;-51
2021/08/11 10:51:08;;;;;;;2.30;2.05;;;29.10;64.80;;;;;;1886888;76;21053;-51
2021/08/11 10:53:38;;;;;;;1.80;1.70;;;29.10;64.80;;;;;;1886922;76;21102;-50
2021/08/11 10:56:07;;;;;;;6.53;2.12;;;29.10;64.60;;;;;;1886849;75;21041;-50
2021/08/11 10:58:44;;;;;;;9.30;5.95;;;29.10;64.90;;;;;;1886949;76;21017;-50
2021/08/11 11:01:32;;;;;;;5.40;3.00;;;29.10;65.00;;;;;;1886877;76;21041;-49
2021/08/11 11:04:02;;;;;;;2.98;2.30;;;29.20;65.00;;;;;;1886981;76;21037;-50
2021/08/11 11:06:51;;;;;;;3.27;2.12;;;29.20;65.00;;;;;;1886907;76;21014;-51
2021/08/11 11:09:22;;;;;;;2.62;1.80;;;29.10;65.20;;;;;;1887037;76;21503;-51
2021/08/11 11:11:51;;;;;;;21.05;4.40;;;29.10;65.20;;;;;;1886950;76;21029;-51
2021/08/11 11:14:53;;;;;;;5.75;2.10;;;29.10;66.10;;;;;;1886922;76;21221;-50
2021/08/11 11:17:25;;;;;;;3.90;2.05;;;29.10;66.40;;;;;;1886807;75;21186;-51
2021/08/11 11:20:08;;;;;;;3.55;2.30;;;29.10;66.00;;;;;;1886349;76;21045;-51
2021/08/11 11:22:40;;;;;;;2.50;2.30;;;29.00;66.10;;;;;;1887240;76;21002;-51
2021/08/11 11:25:13;;;;;;;2.20;2.00;;;29.00;66.20;;;;;;1886959;76;21013;-51
2021/08/11 11:27:55;;;;;;;3.17;2.80;;;28.90;66.20;;;;;;1886850;76;21064;-50
2021/08/11 11:30:30;;;;;;;3.35;2.80;;;28.90;66.40;;;;;;1886156;76;21500;-50
2021/08/11 11:33:20;;;;;;;7.83;3.02;;;29.00;66.40;;;;;;1886843;76;21487;-52
2021/08/11 11:36:09;;;;;;;7.90;3.70;;;28.90;66.50;;;;;;1885415;76;21049;-51
2021/08/11 11:38:41;;;;;;;7.08;3.87;;;29.00;66.90;;;;;;1886362;76;21061;-50
2021/08/11 11:41:10;;;;;;;4.65;2.72;;;29.00;66.90;;;;;;1878992;76;21073;-52
2021/08/11 11:43:40;;;;;;;6.17;5.00;;;28.90;66.50;;;;;;1886462;75;21189;-51
2021/08/11 11:46:10;;;;;;;4.20;2.52;;;28.90;66.80;;;;;;1886531;76;21056;-51
2021/08/11 11:48:42;;;;;;;5.08;3.58;;;28.80;67.20;;;;;;1886830;76;21033;-52
2021/08/11 11:51:11;;;;;;;8.83;4.40;;;28.80;67.20;;;;;;1879441;76;21503;-52
2021/08/11 11:53:40;;;;;;;4.53;3.12;;;28.70;67.20;;;;;;1886985;76;21103;-51
2021/08/11 11:56:12;;;;;;;7.10;4.60;;;28.70;67.50;;;;;;1886816;76;21033;-48
2021/08/11 11:58:48;;;;;;;7.97;6.05;;;28.60;67.90;;;;;;1886005;76;21519;-52
2021/08/11 12:01:19;;;;;;;6.95;5.53;;;28.60;68.90;;;;;;1886812;76;21033;-48
2021/08/11 12:03:53;;;;;;;7.85;5.50;;;28.40;70.30;;;;;;1886747;76;21009;-48
2021/08/11 12:06:43;;;;;;;5.87;5.05;;;28.30;71.60;;;;;;1886933;76;21096;-49
2021/08/11 12:09:12;;;;;;;6.60;4.78;;;28.10;71.80;;;;;;1886870;76;21594;-49
2021/08/11 12:11:42;;;;;;;6.75;4.80;;;27.80;72.80;;;;;;1886755;76;21061;-50
2021/08/11 12:14:12;;;;;;;6.03;5.12;;;27.50;73.50;;;;;;1886854;76;21037;-48
2021/08/11 12:16:42;;;;;;;6.20;4.70;;;27.30;73.90;;;;;;1889209;75;21045;-51
2021/08/11 12:19:14;;;;;;;4.72;4.28;;;27.20;74.50;;;;;;1893086;76;21041;-51
2021/08/11 12:21:44;;;;;;;9.15;4.85;;;27.10;75.10;;;;;;1893187;76;21044;-48
2021/08/11 12:24:13;;;;;;;7.08;4.37;;;27.00;75.40;;;;;;1893331;76;21056;-51
2021/08/11 12:26:42;;;;;;;5.28;4.40;;;27.00;75.60;;;;;;1893336;76;21099;-50
2021/08/11 12:29:20;;;;;;;5.30;4.45;;;27.00;76.00;;;;;;1893386;76;21127;-48
2021/08/11 12:31:51;;;;;;;6.25;4.67;;;27.00;76.20;;;;;;1893418;76;21025;-51
2021/08/11 12:34:21;;;;;;;6.28;4.67;;;27.00;76.40;;;;;;1893490;76;21029;-48
2021/08/11 12:36:50;;;;;;;7.28;6.05;;;26.90;76.60;;;;;;1893475;76;21100;-51
2021/08/11 12:39:20;;;;;;;8.00;4.78;;;26.90;76.50;;;;;;1893529;76;21119;-50
2021/08/11 12:42:04;;;;;;;10.20;5.47;;;26.90;76.60;;;;;;1893500;76;21025;-50
2021/08/11 12:44:33;;;;;;;6.40;5.58;;;26.90;76.80;;;;;;1893418;75;21586;-50
2021/08/11 12:47:04;;;;;;;5.80;5.03;;;26.90;76.70;;;;;;1893460;76;21102;-50
2021/08/11 12:49:38;;;;;;;6.17;5.58;;;27.00;76.70;;;;;;1893415;76;21080;-51
2021/08/11 12:52:21;;;;;;;;;;;27.00;76.40;;;;;;1896144;76;21110;-50
2021/08/11 12:55:02;;;;;;;7.70;6.33;;;27.00;76.90;;;;;;1893540;76;20128;-49
2021/08/11 12:57:47;;;;;;;7.12;6.25;;;27.00;76.10;;;;;;1893259;76;21037;-50